createdAt,value
2019-05-09T00:01:30.585Z,91.80
2019-05-09T00:04:09.385Z,91.70
2019-05-09T00:06:51.652Z,92.00
2019-05-09T00:09:27.235Z,92.70
2019-05-09T00:12:14.277Z,92.50
2019-05-09T00:14:58.034Z,92.40
2019-05-09T00:17:34.324Z,92.90
2019-05-09T00:20:10.581Z,93.20
2019-05-09T00:22:46.142Z,93.40
2019-05-09T00:25:24.398Z,93.50
2019-05-09T00:27:54.951Z,93.80
2019-05-09T00:33:48.291Z,94.00
2019-05-09T00:36:25.184Z,94.30
2019-05-09T00:38:54.617Z,95.00
2019-05-09T00:47:05.264Z,96.20
2019-05-09T00:49:35.892Z,96.70
2019-05-09T00:52:14.121Z,97.10
2019-05-09T00:54:46.623Z,97.00
2019-05-09T01:00:16.842Z,97.00
2019-05-09T01:02:56.494Z,97.30
2019-05-09T01:05:47.339Z,97.70
2019-05-09T01:08:14.655Z,97.80
2019-05-09T01:10:44.969Z,98.20
2019-05-09T01:13:17.158Z,97.90
2019-05-09T01:15:47.919Z,98.10
2019-05-09T01:18:21.168Z,98.40
2019-05-09T01:23:39.270Z,98.60
2019-05-09T01:26:15.272Z,98.80
2019-05-09T01:29:01.208Z,98.80
2019-05-09T01:31:33.264Z,99.50
2019-05-09T01:34:13.970Z,99.20
2019-05-09T01:37:00.693Z,98.70
2019-05-09T01:39:29.474Z,98.70
2019-05-09T01:41:58.212Z,98.60
2019-05-09T01:44:27.077Z,99.10
2019-05-09T01:46:55.959Z,99.40
2019-05-09T01:49:37.236Z,98.50
2019-05-09T01:57:06.890Z,99.20
2019-05-09T01:59:35.815Z,99.90
2019-05-09T02:02:08.937Z,99.90
2019-05-09T02:04:35.627Z,99.90
2019-05-09T02:07:04.565Z,99.90
2019-05-09T02:09:34.246Z,99.90
2019-05-09T02:12:05.337Z,99.90
2019-05-09T02:14:47.366Z,99.90
2019-05-09T02:23:23.343Z,99.90
2019-05-09T02:28:26.242Z,99.90
2019-05-09T02:30:58.336Z,99.90
2019-05-09T02:33:27.766Z,99.90
2019-05-09T02:36:01.757Z,99.90
2019-05-09T02:38:33.888Z,99.90
2019-05-09T02:41:02.717Z,99.90
2019-05-09T02:43:31.549Z,99.90
2019-05-09T02:46:10.077Z,99.90
2019-05-09T02:51:10.519Z,99.90
2019-05-09T02:53:39.982Z,99.90
2019-05-09T02:56:09.529Z,99.90
2019-05-09T02:59:03.942Z,99.90
2019-05-09T03:02:13.102Z,99.90
2019-05-09T03:05:03.016Z,99.90
2019-05-09T03:07:48.358Z,99.90
2019-05-09T03:10:18.992Z,99.90
2019-05-09T03:15:42.908Z,99.90
2019-05-09T03:18:13.353Z,99.90
2019-05-09T03:21:10.884Z,99.90
2019-05-09T03:23:48.860Z,99.90
2019-05-09T03:26:23.030Z,99.90
2019-05-09T03:29:28.906Z,99.90
2019-05-09T03:32:08.764Z,99.90
2019-05-09T03:34:43.510Z,99.90
2019-05-09T03:37:19.581Z,99.90
2019-05-09T03:42:22.979Z,99.90
2019-05-09T03:44:57.906Z,99.90
2019-05-09T03:47:39.520Z,99.90
2019-05-09T03:50:12.645Z,99.90
2019-05-09T03:52:42.117Z,99.90
2019-05-09T03:55:28.171Z,99.90
2019-05-09T03:58:23.193Z,99.90
2019-05-09T04:00:53.025Z,99.90
2019-05-09T04:03:37.838Z,99.90
2019-05-09T04:06:18.468Z,99.90
2019-05-09T04:09:07.530Z,99.90
2019-05-09T04:11:31.265Z,99.90
2019-05-09T04:16:38.982Z,99.90
2019-05-09T04:19:24.324Z,99.90
2019-05-09T04:22:02.205Z,99.90
2019-05-09T04:24:51.933Z,99.90
2019-05-09T04:30:18.306Z,99.90
2019-05-09T04:32:50.491Z,99.90
2019-05-09T04:35:22.842Z,99.90
2019-05-09T04:38:03.950Z,99.90
2019-05-09T04:40:37.829Z,99.90
2019-05-09T04:43:27.296Z,99.90
2019-05-09T04:46:12.831Z,99.90
2019-05-09T04:48:47.887Z,99.90
2019-05-09T04:51:28.421Z,99.90
2019-05-09T04:56:42.433Z,99.90
2019-05-09T04:59:19.396Z,99.90
2019-05-09T05:01:57.944Z,99.90
2019-05-09T05:04:28.270Z,99.90
2019-05-09T05:06:58.673Z,99.90
2019-05-09T05:09:28.144Z,99.90
2019-05-09T05:11:58.297Z,99.90
2019-05-09T05:14:32.819Z,99.90
2019-05-09T05:17:08.496Z,99.90
2019-05-09T05:22:17.955Z,99.90
2019-05-09T05:24:50.019Z,99.90
2019-05-09T05:27:27.545Z,99.90
2019-05-09T05:30:03.963Z,99.90
2019-05-09T05:32:45.343Z,99.90
2019-05-09T05:35:40.395Z,99.90
2019-05-09T05:38:09.321Z,99.90
2019-05-09T05:40:45.646Z,99.90
2019-05-09T05:43:09.972Z,99.90
2019-05-09T05:45:58.672Z,99.90
2019-05-09T05:48:30.954Z,99.90
2019-05-09T05:53:29.641Z,99.90
2019-05-09T05:55:59.490Z,99.90
2019-05-09T05:58:28.950Z,99.90
2019-05-09T06:00:59.896Z,99.90
2019-05-09T06:03:29.150Z,99.90
2019-05-09T06:05:58.745Z,99.90
2019-05-09T06:08:27.669Z,99.90
2019-05-09T06:10:57.589Z,99.10
2019-05-09T06:16:04.036Z,97.90
2019-05-09T06:18:38.566Z,97.70
2019-05-09T06:21:17.733Z,97.00
2019-05-09T06:24:11.430Z,97.30
2019-05-09T06:26:29.136Z,98.10
2019-05-09T06:29:11.435Z,98.00
2019-05-09T06:31:48.394Z,97.40
2019-05-09T06:34:33.290Z,95.70
2019-05-09T06:37:14.851Z,94.50
2019-05-09T06:40:30.321Z,94.10
2019-05-09T06:43:23.718Z,92.40
2019-05-09T06:46:27.761Z,92.40
2019-05-09T06:49:23.228Z,91.00
2019-05-09T06:51:41.044Z,92.00
2019-05-09T06:54:19.387Z,90.30
2019-05-09T06:57:03.147Z,90.90
2019-05-09T06:59:45.566Z,89.50
2019-05-09T07:02:38.803Z,88.50
2019-05-09T07:05:41.667Z,82.00
2019-05-09T07:08:38.441Z,80.90
2019-05-09T07:11:15.586Z,69.30
2019-05-09T07:13:57.877Z,72.10
2019-05-09T07:22:09.129Z,70.70
2019-05-09T07:25:06.552Z,71.70
2019-05-09T07:27:43.919Z,70.30
2019-05-09T07:30:29.088Z,64.90
2019-05-09T07:33:30.565Z,68.70
2019-05-09T07:36:22.193Z,62.50
2019-05-09T07:39:03.601Z,58.00
2019-05-09T07:41:41.999Z,58.30
2019-05-09T07:44:37.882Z,57.80
2019-05-09T07:47:07.566Z,53.90
2019-05-09T07:49:48.143Z,54.70
2019-05-09T07:52:25.324Z,55.20
2019-05-09T07:58:08.201Z,54.10
2019-05-09T08:01:01.266Z,51.00
2019-05-09T08:03:38.670Z,50.10
2019-05-09T08:06:09.927Z,50.50
2019-05-09T08:08:47.809Z,50.10
2019-05-09T08:11:23.758Z,48.30
2019-05-09T08:16:27.943Z,48.60
2019-05-09T08:18:58.712Z,46.80
2019-05-09T08:21:28.456Z,49.20
2019-05-09T08:23:58.255Z,46.90
2019-05-09T08:26:39.399Z,46.60
2019-05-09T08:29:19.831Z,47.20
2019-05-09T08:32:07.260Z,48.00
2019-05-09T08:35:12.540Z,46.60
2019-05-09T08:37:58.225Z,44.60
2019-05-09T08:40:38.453Z,46.50
2019-05-09T08:43:22.480Z,43.90
2019-05-09T08:46:28.640Z,45.10
2019-05-09T08:49:28.546Z,44.20
2019-05-09T08:52:13.020Z,45.00
2019-05-09T08:55:01.383Z,43.20
2019-05-09T08:57:42.561Z,44.10
2019-05-09T09:00:19.378Z,43.40
2019-05-09T09:02:57.565Z,43.70
2019-05-09T09:05:28.825Z,43.50
2019-05-09T09:07:57.992Z,43.00
2019-05-09T09:10:29.077Z,81.10
2019-05-09T09:12:58.261Z,43.50
2019-05-09T09:15:50.394Z,41.70
2019-05-09T09:17:58.385Z,42.20
2019-05-09T09:20:28.779Z,41.60
2019-05-09T09:22:58.485Z,42.60
2019-05-09T09:25:28.682Z,39.90
2019-05-09T09:27:58.285Z,60.80
2019-05-09T09:32:58.544Z,40.60
2019-05-09T09:35:28.042Z,39.10
2019-05-09T09:37:57.991Z,38.60
2019-05-09T09:40:27.984Z,38.60
2019-05-09T09:42:58.308Z,39.30
2019-05-09T09:45:28.156Z,39.00
2019-05-09T09:47:59.225Z,39.60
2019-05-09T09:50:28.125Z,38.00
2019-05-09T09:57:57.988Z,37.90
2019-05-09T10:00:59.088Z,37.50
2019-05-09T10:03:28.373Z,40.00
2019-05-09T10:05:57.838Z,38.80
2019-05-09T10:08:27.014Z,38.60
2019-05-09T10:10:58.825Z,39.20
2019-05-09T10:13:28.624Z,39.40
2019-05-09T10:16:29.429Z,40.30
2019-05-09T10:19:01.422Z,36.70
2019-05-09T10:24:02.947Z,36.90
2019-05-09T10:26:32.083Z,37.90
2019-05-09T10:29:01.157Z,38.50
2019-05-09T10:31:30.260Z,38.20
2019-05-09T10:33:59.378Z,38.60
2019-05-09T10:36:28.371Z,40.00
2019-05-09T10:38:58.487Z,39.10
2019-05-09T10:41:28.479Z,57.40
2019-05-09T10:44:10.034Z,38.40
2019-05-09T10:47:08.603Z,38.60
2019-05-09T10:49:38.031Z,38.00
2019-05-09T10:52:08.803Z,40.30
2019-05-09T10:54:38.349Z,38.90
2019-05-09T10:57:07.495Z,38.70
2019-05-09T10:59:37.661Z,39.30
2019-05-09T11:02:09.582Z,39.60
2019-05-09T11:04:41.381Z,41.10
2019-05-09T11:07:08.798Z,43.80
2019-05-09T11:12:08.651Z,48.70
2019-05-09T11:14:37.963Z,47.70
2019-05-09T11:17:14.356Z,49.30
2019-05-09T11:19:37.726Z,51.80
2019-05-09T11:22:08.000Z,51.70
2019-05-09T11:24:45.804Z,54.40
2019-05-09T11:27:08.640Z,55.00
2019-05-09T11:29:38.826Z,55.10
2019-05-09T11:34:37.631Z,56.10
2019-05-09T11:37:08.486Z,55.50
2019-05-09T11:39:42.042Z,56.60
2019-05-09T11:42:08.335Z,58.30
2019-05-09T11:44:38.518Z,56.50
2019-05-09T11:47:26.808Z,55.10
2019-05-09T11:49:39.020Z,53.90
2019-05-09T11:52:08.442Z,54.00
2019-05-09T11:54:38.849Z,86.00
2019-05-09T11:57:07.975Z,53.30
2019-05-09T11:59:37.974Z,55.00
2019-05-09T12:02:08.901Z,52.60
2019-05-09T12:04:38.043Z,50.80
2019-05-09T12:07:07.891Z,50.80
2019-05-09T12:09:38.559Z,50.70
2019-05-09T12:12:07.656Z,50.60
2019-05-09T12:14:38.180Z,48.60
2019-05-09T12:19:38.178Z,48.80
2019-05-09T12:22:08.934Z,49.60
2019-05-09T12:24:38.442Z,48.60
2019-05-09T12:27:08.744Z,46.50
2019-05-09T12:29:38.693Z,46.50
2019-05-09T12:32:08.846Z,47.10
2019-05-09T12:34:38.068Z,47.90
2019-05-09T12:37:09.469Z,47.30
2019-05-09T12:42:08.843Z,48.10
2019-05-09T12:44:37.989Z,48.80
2019-05-09T12:47:07.032Z,47.60
2019-05-09T12:49:38.618Z,47.20
2019-05-09T12:52:08.193Z,46.90
2019-05-09T12:54:38.620Z,47.10
2019-05-09T12:57:08.151Z,47.70
2019-05-09T12:59:46.391Z,45.70
2019-05-09T13:04:38.196Z,45.90
2019-05-09T13:07:08.619Z,47.10
2019-05-09T13:09:37.810Z,47.50
2019-05-09T13:12:08.593Z,48.00
2019-05-09T13:14:38.075Z,48.20
2019-05-09T13:17:13.369Z,46.90
2019-05-09T13:19:47.947Z,46.30
2019-05-09T13:22:18.514Z,46.30
2019-05-09T13:27:18.999Z,46.70
2019-05-09T13:29:49.247Z,47.90
2019-05-09T13:32:18.481Z,46.50
2019-05-09T13:34:48.603Z,47.10
2019-05-09T13:37:18.910Z,45.80
2019-05-09T13:39:48.184Z,45.50
2019-05-09T13:42:19.585Z,45.40
2019-05-09T13:44:48.143Z,44.70
2019-05-09T13:49:48.462Z,43.30
2019-05-09T13:52:18.089Z,45.20
2019-05-09T13:54:48.254Z,43.00
2019-05-09T13:57:18.822Z,43.30
2019-05-09T13:59:48.665Z,43.60
2019-05-09T14:02:18.877Z,41.50
2019-05-09T14:04:48.845Z,42.30
2019-05-09T14:07:19.356Z,42.40
2019-05-09T14:09:48.785Z,76.80
2019-05-09T14:12:17.857Z,42.80
2019-05-09T14:14:46.992Z,43.30
2019-05-09T14:17:18.771Z,43.90
2019-05-09T14:19:50.874Z,42.90
2019-05-09T14:22:18.073Z,42.00
2019-05-09T14:24:48.393Z,43.40
2019-05-09T14:27:18.671Z,44.10
2019-05-09T14:29:49.741Z,48.90
2019-05-09T14:34:48.241Z,50.50
2019-05-09T14:37:18.047Z,50.70
2019-05-09T14:39:55.826Z,50.80
2019-05-09T14:42:18.823Z,52.80
2019-05-09T14:44:48.067Z,56.90
2019-05-09T14:47:17.625Z,58.40
2019-05-09T14:49:50.042Z,61.00
2019-05-09T14:52:17.475Z,59.50
2019-05-09T14:57:17.578Z,59.40
2019-05-09T14:59:47.140Z,58.00
2019-05-09T15:02:17.925Z,59.00
2019-05-09T15:04:48.598Z,61.10
2019-05-09T15:07:19.479Z,60.20
2019-05-09T15:09:48.711Z,59.90
2019-05-09T15:12:18.603Z,60.70
2019-05-09T15:14:48.055Z,59.90
2019-05-09T15:19:57.453Z,62.30
2019-05-09T15:22:18.344Z,59.40
2019-05-09T15:24:47.826Z,59.30
2019-05-09T15:27:17.752Z,58.40
2019-05-09T15:29:48.662Z,57.50
2019-05-09T15:32:18.400Z,56.10
2019-05-09T15:34:47.464Z,58.90
2019-05-09T15:37:18.640Z,55.30
2019-05-09T15:42:18.343Z,55.00
2019-05-09T15:44:47.745Z,55.50
2019-05-09T15:47:21.396Z,55.60
2019-05-09T15:49:50.418Z,55.40
2019-05-09T15:52:19.572Z,54.90
2019-05-09T15:54:48.701Z,53.20
2019-05-09T15:57:17.789Z,54.30
2019-05-09T16:02:19.095Z,52.70
2019-05-09T16:04:47.786Z,53.70
2019-05-09T16:07:17.892Z,53.30
2019-05-09T16:09:48.328Z,52.40
2019-05-09T16:12:18.534Z,53.30
2019-05-09T16:14:48.628Z,53.00
2019-05-09T16:17:19.083Z,52.00
2019-05-09T16:19:48.439Z,52.30
2019-05-09T16:24:48.581Z,52.20
2019-05-09T16:27:17.920Z,52.70
2019-05-09T16:29:48.616Z,53.30
2019-05-09T16:32:17.867Z,52.00
2019-05-09T16:34:46.615Z,52.40
2019-05-09T16:37:15.426Z,52.90
2019-05-09T16:39:44.503Z,52.80
2019-05-09T16:42:13.286Z,55.40
2019-05-09T16:47:10.757Z,52.30
2019-05-09T16:49:39.528Z,52.80
2019-05-09T16:52:08.322Z,51.00
2019-05-09T16:54:42.298Z,50.20
2019-05-09T16:57:11.015Z,51.10
2019-05-09T16:59:39.756Z,50.80
2019-05-09T17:02:18.922Z,49.80
2019-05-09T17:04:38.993Z,47.90
2019-05-09T17:09:40.643Z,48.30
2019-05-09T17:12:09.771Z,49.40
2019-05-09T17:14:38.458Z,49.20
2019-05-09T17:17:08.378Z,49.20
2019-05-09T17:19:37.833Z,49.30
2019-05-09T17:22:40.816Z,49.60
2019-05-09T17:25:09.654Z,50.30
2019-05-09T17:27:38.829Z,51.20
2019-05-09T17:32:38.067Z,50.40
2019-05-09T17:35:07.048Z,51.90
2019-05-09T17:37:37.994Z,52.30
2019-05-09T17:40:07.987Z,53.10
2019-05-09T17:42:38.203Z,53.60
2019-05-09T17:45:08.460Z,53.80
2019-05-09T17:47:37.734Z,53.70
2019-05-09T17:50:07.737Z,53.30
2019-05-09T17:55:07.271Z,53.60
2019-05-09T17:57:35.371Z,54.10
2019-05-09T18:00:04.734Z,54.10
2019-05-09T18:02:33.463Z,53.40
2019-05-09T18:05:02.222Z,53.90
2019-05-09T18:07:31.110Z,54.20
2019-05-09T18:09:59.860Z,53.50
2019-05-09T18:12:28.592Z,54.10
2019-05-09T18:17:27.530Z,53.70
2019-05-09T18:19:58.293Z,54.40
2019-05-09T18:22:26.606Z,54.60
2019-05-09T18:24:57.579Z,54.70
2019-05-09T18:27:27.428Z,54.90
2019-05-09T18:29:58.309Z,55.10
2019-05-09T18:32:38.309Z,55.50
2019-05-09T18:40:18.005Z,55.70
2019-05-09T18:42:47.635Z,56.20
2019-05-09T18:45:17.574Z,56.30
2019-05-09T18:47:48.186Z,56.30
2019-05-09T18:50:17.394Z,56.60
2019-05-09T18:52:46.089Z,56.60
2019-05-09T18:55:14.885Z,56.80
2019-05-09T18:57:43.762Z,56.40
2019-05-09T19:02:41.123Z,56.70
2019-05-09T19:05:12.968Z,57.40
2019-05-09T19:07:40.557Z,57.50
2019-05-09T19:10:09.325Z,58.10
2019-05-09T19:12:38.103Z,58.80
2019-05-09T19:15:08.883Z,58.40
2019-05-09T19:18:11.882Z,58.50
2019-05-09T19:20:54.398Z,57.10
2019-05-09T19:25:51.446Z,57.50
2019-05-09T19:28:23.806Z,58.30
2019-05-09T19:30:51.055Z,58.60
2019-05-09T19:33:19.774Z,58.50
2019-05-09T19:35:48.574Z,58.40
2019-05-09T19:38:17.359Z,58.80
2019-05-09T19:40:46.078Z,58.60
2019-05-09T19:45:43.185Z,58.60
2019-05-09T19:48:11.978Z,59.50
2019-05-09T19:50:40.782Z,60.00
2019-05-09T19:53:10.322Z,59.20
2019-05-09T19:55:39.207Z,58.80
2019-05-09T19:58:07.918Z,58.70
2019-05-09T20:00:36.603Z,58.70
2019-05-09T20:03:05.370Z,58.50
2019-05-09T20:08:02.402Z,58.10
2019-05-09T20:10:48.623Z,58.60
2019-05-09T20:13:31.319Z,59.10
2019-05-09T20:16:00.093Z,59.10
2019-05-09T20:18:28.885Z,59.40
2019-05-09T20:20:57.592Z,59.80
2019-05-09T20:23:26.359Z,60.10
2019-05-09T20:25:55.109Z,60.50
2019-05-09T20:30:52.213Z,62.10
2019-05-09T20:33:21.008Z,63.30
2019-05-09T20:35:49.737Z,63.80
2019-05-09T20:38:18.606Z,64.30
2019-05-09T20:40:47.547Z,64.10
2019-05-09T20:43:16.438Z,64.70
2019-05-09T20:45:46.104Z,65.10
2019-05-09T20:48:15.115Z,64.50
2019-05-09T20:53:13.778Z,65.00
2019-05-09T20:55:42.783Z,65.90
2019-05-09T20:58:11.858Z,66.00
2019-05-09T21:00:40.911Z,65.90
2019-05-09T21:03:09.810Z,67.20
2019-05-09T21:05:38.733Z,67.80
2019-05-09T21:08:07.689Z,68.20
2019-05-09T21:10:36.611Z,69.30
2019-05-09T21:15:34.111Z,69.90
2019-05-09T21:18:03.226Z,71.50
2019-05-09T21:20:32.270Z,72.30
2019-05-09T21:23:01.258Z,73.10
2019-05-09T21:25:33.251Z,73.80
2019-05-09T21:28:01.111Z,79.80
2019-05-09T21:30:30.070Z,80.80
2019-05-09T21:32:59.019Z,82.60
2019-05-09T21:37:56.588Z,85.30
2019-05-09T21:40:25.354Z,85.20
2019-05-09T21:42:54.053Z,86.40
2019-05-09T21:45:23.023Z,85.20
2019-05-09T21:47:52.290Z,85.90
2019-05-09T21:50:21.552Z,86.50
2019-05-09T21:52:50.924Z,85.20
2019-05-09T21:57:48.873Z,84.10
2019-05-09T22:00:22.578Z,85.00
2019-05-09T22:02:51.357Z,83.40
2019-05-09T22:05:20.114Z,83.40
2019-05-09T22:07:48.927Z,83.20
2019-05-09T22:10:17.690Z,82.20
2019-05-09T22:12:46.474Z,82.50
2019-05-09T22:15:15.445Z,80.40
2019-05-09T22:20:12.910Z,81.10
2019-05-09T22:22:41.928Z,81.50
2019-05-09T22:25:11.284Z,81.60
2019-05-09T22:27:40.559Z,81.00
2019-05-09T22:30:09.729Z,81.60
2019-05-09T22:32:39.083Z,82.50
2019-05-09T22:35:08.431Z,83.60
2019-05-09T22:37:38.034Z,84.60
2019-05-09T22:42:35.975Z,85.90
2019-05-09T22:45:04.922Z,86.50
2019-05-09T22:47:33.646Z,86.90
2019-05-09T22:50:02.361Z,87.10
2019-05-09T22:52:31.066Z,86.90
2019-05-09T22:54:59.786Z,87.40
2019-05-09T22:57:28.527Z,88.80
2019-05-09T22:59:57.490Z,87.40
2019-05-09T23:04:54.631Z,87.40
2019-05-09T23:07:23.391Z,89.60
2019-05-09T23:09:52.172Z,89.80
2019-05-09T23:12:20.881Z,90.00
2019-05-09T23:14:49.572Z,90.30
2019-05-09T23:17:18.289Z,90.10
2019-05-09T23:19:46.983Z,89.40
2019-05-09T23:24:44.851Z,88.20
2019-05-09T23:27:16.105Z,89.20
2019-05-09T23:29:44.871Z,88.60
2019-05-09T23:32:28.803Z,87.90
2019-05-09T23:35:01.426Z,87.30
2019-05-09T23:37:30.151Z,86.60
2019-05-09T23:39:58.876Z,85.90
2019-05-09T23:42:27.670Z,83.40
2019-05-09T23:49:53.038Z,81.80
2019-05-09T23:52:21.738Z,82.30
2019-05-09T23:55:08.147Z,81.40
2019-05-09T23:57:54.683Z,81.70
